Time;durP1;ratioP1;P1;durP2;ratioP2;P2;SDS_P1;SDS_P2;PMS_P1;PMS_P2;Temp;Humidity;BMP_temperature;BMP_pressure;BME280_temperature;BME280_humidity;BME280_pressure;Samples;Min_cycle;Max_cycle;Signal;HPM_P1;HPM_P2
2022/10/18 00:01:50;;;;;;;15.40;11.90;;;;;;;14.24;100.00;102369.81;5007174;29;20045;-71
2022/10/18 00:04:21;;;;;;;15.50;10.97;;;;;;;14.23;100.00;102366.31;5006694;29;20560;-73
2022/10/18 00:06:52;;;;;;;13.73;12.30;;;;;;;14.26;100.00;102367.19;5007044;29;20403;-72
2022/10/18 00:09:24;;;;;;;16.50;11.73;;;;;;;14.22;100.00;102361.09;5007183;29;20515;-72
2022/10/18 00:11:55;;;;;;;14.53;11.40;;;;;;;14.18;100.00;102360.22;5006533;29;20039;-72
2022/10/18 00:14:27;;;;;;;14.37;10.80;;;;;;;14.17;100.00;102362.84;5007401;29;20050;-72
2022/10/18 00:16:58;;;;;;;13.83;11.60;;;;;;;14.16;100.00;102367.19;5006872;29;20049;-72
2022/10/18 00:19:29;;;;;;;14.57;10.90;;;;;;;14.17;100.00;102365.47;5006564;29;20447;-72
2022/10/18 00:22:01;;;;;;;20.90;12.10;;;;;;;14.15;100.00;102368.09;5006477;29;20403;-73
2022/10/18 00:24:32;;;;;;;13.03;10.87;;;;;;;14.15;100.00;102361.97;5006948;29;20070;-71
2022/10/18 00:27:03;;;;;;;16.27;11.97;;;;;;;14.19;100.00;102366.34;5006520;29;20130;-71
2022/10/18 00:29:35;;;;;;;15.23;11.17;;;;;;;14.12;100.00;102367.22;5005328;29;20034;-71
2022/10/18 00:32:06;;;;;;;17.33;11.67;;;;;;;14.16;100.00;102374.22;5006463;29;20046;-71
2022/10/18 00:34:38;;;;;;;19.30;10.83;;;;;;;14.18;100.00;102360.22;5006538;29;20062;-71
2022/10/18 00:37:10;;;;;;;14.73;11.40;;;;;;;14.18;100.00;102356.72;5006512;29;20050;-71
2022/10/18 00:39:41;;;;;;;12.87;11.57;;;;;;;14.17;100.00;102354.97;5006298;29;20059;-71
2022/10/18 00:42:18;;;;;;;15.87;11.10;;;;;;;14.13;100.00;102361.97;5006693;29;20046;-71
2022/10/18 00:44:49;;;;;;;16.00;11.32;;;;;;;14.17;100.00;102368.09;5006317;29;20035;-71
2022/10/18 00:47:21;;;;;;;15.53;10.87;;;;;;;14.16;100.00;102361.97;5006320;29;20049;-71
2022/10/18 00:49:55;;;;;;;15.70;11.27;;;;;;;14.13;100.00;102364.59;5005940;29;20091;-71
2022/10/18 00:52:34;;;;;;;16.15;11.23;;;;;;;14.07;100.00;102364.63;5006867;29;20435;-71
2022/10/18 00:55:06;;;;;;;14.02;10.45;;;;;;;14.10;100.00;102359.34;5006179;29;20030;-71
2022/10/18 00:57:40;;;;;;;14.60;10.70;;;;;;;14.08;100.00;102366.34;5006066;29;20054;-70
2022/10/18 01:00:12;;;;;;;12.70;11.40;;;;;;;14.09;100.00;102370.72;5006001;29;20043;-70
2022/10/18 01:02:45;;;;;;;12.98;10.63;;;;;;;14.15;100.00;102381.22;5005976;29;20031;-71
2022/10/18 01:05:18;;;;;;;14.73;10.85;;;;;;;14.08;100.00;102379.47;5005868;29;20171;-71
2022/10/18 01:08:01;;;;;;;13.88;12.15;;;;;;;14.09;100.00;102381.22;5005869;29;20424;-70
2022/10/18 01:10:47;;;;;;;12.95;10.60;;;;;;;14.10;100.00;102382.94;5005978;29;20502;-71
2022/10/18 01:13:32;;;;;;;13.73;10.45;;;;;;;14.10;100.00;102392.56;5006096;29;20464;-71
2022/10/18 01:16:46;;;;;;;11.70;10.05;;;;;;;14.10;100.00;102379.47;5005701;29;20479;-71
2022/10/18 01:19:42;;;;;;;14.23;10.45;;;;;;;14.15;100.00;102381.22;5002417;29;20058;-71
2022/10/18 01:22:32;;;;;;;13.15;11.02;;;;;;;14.15;100.00;102385.56;5005965;29;20030;-71
2022/10/18 01:25:23;;;;;;;14.98;10.35;;;;;;;14.10;100.00;102374.22;5005548;29;20038;-71
2022/10/18 01:28:05;;;;;;;16.83;11.45;;;;;;;14.09;100.00;102375.06;5005857;29;20109;-71
2022/10/18 01:30:38;;;;;;;12.13;10.43;;;;;;;14.08;100.00;102378.59;5005538;29;20046;-72
2022/10/18 01:33:14;;;;;;;13.80;10.70;;;;;;;14.06;100.00;102381.22;5005987;29;20034;-71
2022/10/18 01:35:55;;;;;;;12.88;9.85;;;;;;;14.08;100.00;102384.69;5005459;29;20479;-71
2022/10/18 01:38:29;;;;;;;11.73;10.50;;;;;;;14.04;100.00;102382.97;5005505;29;20180;-71
2022/10/18 01:41:03;;;;;;;16.92;10.60;;;;;;;14.06;100.00;102381.22;5005589;29;20451;-71
2022/10/18 01:43:38;;;;;;;11.57;10.10;;;;;;;14.09;100.00;102385.56;5005420;29;20038;-71
2022/10/18 01:46:14;;;;;;;13.02;10.48;;;;;;;14.05;100.00;102382.09;5005843;29;20045;-72
2022/10/18 01:48:47;;;;;;;14.98;10.90;;;;;;;14.01;100.00;102380.34;5005400;29;20045;-71
2022/10/18 01:51:31;;;;;;;12.77;10.60;;;;;;;14.00;100.00;102381.22;5005433;29;20478;-71
2022/10/18 01:54:03;;;;;;;19.00;11.40;;;;;;;13.96;100.00;102375.13;5005845;29;20507;-71
2022/10/18 01:57:00;;;;;;;12.80;10.17;;;;;;;13.99;100.00;102384.72;5005355;29;20039;-71
2022/10/18 01:59:46;;;;;;;13.45;10.80;;;;;;;13.93;100.00;102388.22;5005337;29;20019;-71
2022/10/18 02:02:39;;;;;;;11.98;10.77;;;;;;;13.93;100.00;102384.75;5005255;29;20472;-71
2022/10/18 02:05:23;;;;;;;14.98;11.02;;;;;;;13.89;100.00;102383.00;5005532;29;20034;-71
2022/10/18 02:08:11;;;;;;;13.20;10.13;;;;;;;13.88;100.00;102386.47;5005557;29;20383;-72
2022/10/18 02:10:54;;;;;;;14.05;10.23;;;;;;;13.91;100.00;102389.09;5005114;29;20391;-71
2022/10/18 02:13:31;;;;;;;14.90;10.80;;;;;;;13.85;100.00;102390.00;5005238;29;20031;-72
2022/10/18 02:16:18;;;;;;;14.10;10.90;;;;;;;13.84;100.00;102383.84;5005261;29;20395;-72
2022/10/18 02:18:57;;;;;;;14.10;10.38;;;;;;;13.80;100.00;102374.25;5004268;29;20556;-71
2022/10/18 02:21:30;;;;;;;16.13;11.10;;;;;;;13.82;100.00;102380.38;5005917;29;20050;-71
2022/10/18 02:24:03;;;;;;;14.63;10.20;;;;;;;13.79;100.00;102388.22;5009206;29;20043;-72
2022/10/18 02:26:34;;;;;;;18.00;11.38;;;;;;;13.78;100.00;102385.59;5008826;29;20118;-71
2022/10/18 02:29:07;;;;;;;15.80;10.60;;;;;;;13.76;100.00;102388.22;5009299;29;20176;-71
2022/10/18 02:31:43;;;;;;;15.13;11.07;;;;;;;13.75;100.00;102385.59;5008599;29;20041;-71
2022/10/18 02:34:24;;;;;;;15.23;10.50;;;;;;;13.74;100.00;102386.50;5009021;29;20030;-72
2022/10/18 02:36:58;;;;;;;11.93;10.43;;;;;;;13.72;100.00;102388.22;5008469;29;20035;-71
2022/10/18 02:39:42;;;;;;;18.70;11.13;;;;;;;13.67;100.00;102383.88;5008375;29;20065;-71
2022/10/18 02:42:14;;;;;;;22.13;11.48;;;;;;;13.70;100.00;102393.50;5008472;29;20449;-70
2022/10/18 02:44:45;;;;;;;15.93;12.05;;;;;;;13.69;100.00;102396.97;5009618;29;20043;-72
2022/10/18 02:47:16;;;;;;;13.10;10.90;;;;;;;13.68;100.00;102400.47;5008293;29;20042;-72
2022/10/18 02:49:48;;;;;;;16.10;11.43;;;;;;;13.72;100.00;102401.31;5008235;29;20031;-72
2022/10/18 02:52:19;;;;;;;12.53;11.23;;;;;;;13.74;100.00;102394.38;5008377;29;20441;-71
2022/10/18 02:54:50;;;;;;;13.83;11.70;;;;;;;13.74;100.00;102396.97;5008411;29;20069;-71
2022/10/18 02:57:22;;;;;;;15.73;10.87;;;;;;;13.73;100.00;102395.22;5008576;29;20050;-71
2022/10/18 02:59:53;;;;;;;17.93;12.27;;;;;;;13.71;100.00;102396.97;5008334;29;20038;-71
2022/10/18 03:02:25;;;;;;;14.03;11.93;;;;;;;13.73;100.00;102395.22;5008302;29;20042;-71
2022/10/18 03:04:56;;;;;;;14.30;11.70;;;;;;;13.73;100.00;102388.22;5007266;29;20080;-71
2022/10/18 03:07:28;;;;;;;12.90;11.63;;;;;;;13.73;100.00;102388.22;5008271;29;20031;-71
2022/10/18 03:09:59;;;;;;;16.93;12.07;;;;;;;13.74;100.00;102392.59;5008411;29;20131;-70
2022/10/18 03:12:30;;;;;;;16.67;13.63;;;;;;;13.76;100.00;102400.47;5007092;29;20030;-71
2022/10/18 03:15:02;;;;;;;19.40;13.87;;;;;;;13.74;100.00;102399.59;5008050;29;20419;-71
2022/10/18 03:17:33;;;;;;;16.67;13.33;;;;;;;13.74;100.00;102392.59;5008213;29;20047;-71
2022/10/18 03:20:05;;;;;;;23.13;15.13;;;;;;;13.74;100.00;102386.50;5006701;29;20093;-71
2022/10/18 03:22:37;;;;;;;19.35;15.40;;;;;;;13.74;100.00;102394.38;5008146;29;20047;-71
2022/10/18 03:25:08;;;;;;;16.93;15.17;;;;;;;13.74;100.00;102402.22;5006747;29;20081;-71
2022/10/18 03:27:39;;;;;;;18.37;14.70;;;;;;;13.77;100.00;102403.09;5007895;29;20031;-71
2022/10/18 03:30:12;;;;;;;18.53;16.63;;;;;;;13.75;100.00;102409.19;5007843;29;20038;-71
2022/10/18 03:32:43;;;;;;;;;;;;;;;13.77;100.00;102405.72;5007369;29;20058;-71
2022/10/18 03:35:15;;;;;;;26.97;16.67;;;;;;;13.78;100.00;102404.84;5007218;29;19921;-71
2022/10/18 03:37:46;;;;;;;19.17;17.00;;;;;;;13.76;100.00;102403.09;5007686;29;20284;-71
2022/10/18 03:40:18;;;;;;;21.13;18.90;;;;;;;13.76;100.00;102408.31;5007418;29;20050;-71
2022/10/18 03:42:49;;;;;;;18.03;16.17;;;;;;;13.72;100.00;102406.56;5008167;29;20039;-71
2022/10/18 03:45:21;;;;;;;18.93;17.03;;;;;;;13.68;100.00;102398.75;5007579;29;20035;-71
2022/10/18 03:47:52;;;;;;;23.30;18.60;;;;;;;13.67;100.00;102396.13;5008154;29;20591;-71
2022/10/18 03:50:23;;;;;;;18.87;16.97;;;;;;;13.66;100.00;102395.22;5006274;29;20123;-71
2022/10/18 03:52:55;;;;;;;20.87;16.33;;;;;;;13.62;100.00;102389.97;5007486;29;20480;-71
2022/10/18 03:55:26;;;;;;;26.17;16.13;;;;;;;13.54;100.00;102391.72;5008196;29;20046;-71
2022/10/18 03:57:57;;;;;;;26.10;16.83;;;;;;;13.51;100.00;102387.38;5007150;29;20121;-71
2022/10/18 04:00:29;;;;;;;19.70;17.70;;;;;;;13.42;100.00;102382.97;5007689;29;20099;-70
2022/10/18 04:03:00;;;;;;;23.60;17.10;;;;;;;13.39;100.00;102385.59;5007327;29;20041;-71
2022/10/18 04:05:33;;;;;;;23.27;17.60;;;;;;;13.38;100.00;102390.81;5007234;29;20058;-71
2022/10/18 04:08:04;;;;;;;;;;;;;;;13.39;100.00;102385.59;5007187;29;20069;-71
2022/10/18 04:10:37;;;;;;;23.58;17.90;;;;;;;13.37;100.00;102381.25;5007206;29;19945;-71
2022/10/18 04:13:09;;;;;;;26.75;20.13;;;;;;;13.32;100.00;102386.44;5007092;29;20038;-71
2022/10/18 04:15:42;;;;;;;21.30;18.98;;;;;;;13.29;100.00;102387.28;5006774;29;20038;-71
2022/10/18 04:18:13;;;;;;;23.10;19.48;;;;;;;13.28;100.00;102387.28;5006993;29;20050;-71
2022/10/18 04:20:44;;;;;;;21.83;18.83;;;;;;;13.27;100.00;102396.03;5006997;29;20059;-71
2022/10/18 04:23:15;;;;;;;20.90;18.67;;;;;;;13.25;100.00;102395.13;5006970;29;20073;-70
2022/10/18 04:25:47;;;;;;;24.00;19.50;;;;;;;13.21;100.00;102398.63;5006898;29;20104;-71
2022/10/18 04:28:18;;;;;;;18.87;17.07;;;;;;;13.19;100.00;102398.63;5006863;29;20092;-70
2022/10/18 04:30:51;;;;;;;20.60;17.70;;;;;;;13.20;100.00;102403.00;5006953;29;20084;-70
2022/10/18 04:33:22;;;;;;;22.85;18.63;;;;;;;13.15;100.00;102404.72;5006521;29;20039;-70
2022/10/18 04:35:54;;;;;;;20.07;18.07;;;;;;;13.13;100.00;102399.47;5006471;29;20068;-70
2022/10/18 04:38:25;;;;;;;27.73;18.77;;;;;;;13.12;100.00;102404.72;5005247;29;20038;-70
2022/10/18 04:40:56;;;;;;;21.97;18.13;;;;;;;13.08;100.00;102408.22;5006309;29;20066;-71
2022/10/18 04:43:28;;;;;;;24.87;18.90;;;;;;;13.07;100.00;102420.44;5006091;29;20042;-70
2022/10/18 04:45:59;;;;;;;21.97;18.60;;;;;;;13.05;100.00;102402.97;5006730;29;20456;-70
2022/10/18 04:48:31;;;;;;;21.50;19.17;;;;;;;13.03;100.00;102404.72;5006444;29;20039;-70
2022/10/18 04:51:02;;;;;;;25.27;20.10;;;;;;;12.96;100.00;102403.81;5006327;29;20035;-70
2022/10/18 04:53:33;;;;;;;21.30;19.00;;;;;;;12.94;100.00;102413.38;5006877;29;20042;-69
2022/10/18 04:56:05;;;;;;;22.53;18.07;;;;;;;12.95;100.00;102420.38;5007013;29;20064;-70
2022/10/18 04:58:36;;;;;;;29.07;20.40;;;;;;;12.94;100.00;102423.84;5006268;29;20039;-69
2022/10/18 05:01:08;;;;;;;22.27;18.73;;;;;;;12.90;100.00;102422.97;5006271;29;20484;-69
2022/10/18 05:03:39;;;;;;;25.50;21.20;;;;;;;12.94;100.00;102421.25;5006284;29;20484;-69
2022/10/18 05:06:11;;;;;;;27.93;19.17;;;;;;;12.94;100.00;102413.38;5006404;29;20034;-70
2022/10/18 05:08:42;;;;;;;28.43;22.70;;;;;;;12.90;100.00;102414.28;5006150;29;20038;-69
2022/10/18 05:11:14;;;;;;;25.43;19.73;;;;;;;12.83;100.00;102407.25;5005794;29;20039;-69
2022/10/18 05:13:45;;;;;;;22.33;18.97;;;;;;;12.86;100.00;102413.34;5005850;29;20042;-69
2022/10/18 05:16:17;;;;;;;24.30;21.63;;;;;;;12.85;100.00;102423.84;5006338;29;20464;-69
2022/10/18 05:18:48;;;;;;;23.55;20.15;;;;;;;12.83;100.00;102422.94;5005778;29;20127;-69
2022/10/18 05:21:20;;;;;;;24.97;19.57;;;;;;;12.81;100.00;102425.56;5005055;29;20054;-69
2022/10/18 05:23:55;;;;;;;30.63;20.77;;;;;;;12.82;100.00;102426.44;5005892;29;20073;-70
2022/10/18 05:26:26;;;;;;;28.23;20.90;;;;;;;12.77;100.00;102431.66;5005775;29;20532;-69
2022/10/18 05:28:58;;;;;;;25.37;21.27;;;;;;;12.76;100.00;102436.00;5005799;29;20039;-69
2022/10/18 05:31:29;;;;;;;24.63;21.90;;;;;;;12.81;100.00;102429.94;5005691;29;20050;-70
2022/10/18 05:34:01;;;;;;;25.10;21.97;;;;;;;12.79;100.00;102429.06;5006008;29;20038;-70
2022/10/18 05:36:32;;;;;;;27.53;22.97;;;;;;;12.78;100.00;102436.00;5005909;29;20045;-70
2022/10/18 05:39:04;;;;;;;35.40;25.27;;;;;;;12.83;100.00;102434.31;5005834;29;20099;-70
2022/10/18 05:41:35;;;;;;;39.60;27.27;;;;;;;12.83;100.00;102430.78;5005258;29;20145;-70
2022/10/18 05:44:07;;;;;;;30.37;25.33;;;;;;;12.77;100.00;102431.66;5005828;29;20427;-70
2022/10/18 05:46:38;;;;;;;34.43;26.00;;;;;;;12.75;100.00;102430.75;5005410;29;20076;-70
2022/10/18 05:49:13;;;;;;;40.57;28.63;;;;;;;12.81;100.00;102428.16;5005608;29;20039;-70
2022/10/18 05:51:44;;;;;;;43.10;26.65;;;;;;;12.77;100.00;102435.16;5005311;29;20035;-70
2022/10/18 05:54:16;;;;;;;43.53;27.93;;;;;;;12.74;100.00;102437.75;5005388;29;20399;-70
2022/10/18 05:56:47;;;;;;;36.93;26.97;;;;;;;12.73;100.00;102441.22;5004784;29;20037;-70
2022/10/18 05:59:18;;;;;;;56.43;29.63;;;;;;;12.74;100.00;102440.34;5005090;29;20038;-70
2022/10/18 06:01:50;;;;;;;131.77;33.40;;;;;;;12.74;100.00;102444.72;5005449;29;20440;-70
2022/10/18 06:04:21;;;;;;;40.20;26.67;;;;;;;12.71;100.00;102444.72;5005485;29;20396;-70
2022/10/18 06:06:54;;;;;;;62.60;28.70;;;;;;;12.69;100.00;102449.94;5005206;29;20039;-70
2022/10/18 06:09:27;;;;;;;71.15;28.58;;;;;;;12.67;100.00;102453.41;5005108;29;20149;-70
2022/10/18 06:11:58;;;;;;;;;;;;;;;12.66;100.00;102452.53;5005684;29;20066;-70
2022/10/18 06:14:30;;;;;;;136.07;30.87;;;;;;;12.65;100.00;102450.78;5005388;29;19960;-70
2022/10/18 06:17:02;;;;;;;180.77;40.67;;;;;;;12.63;100.00;102449.91;5005042;29;20268;-70
2022/10/18 06:19:33;;;;;;;51.87;25.63;;;;;;;12.61;100.00;102451.63;5004738;29;20043;-70
2022/10/18 06:22:04;;;;;;;107.37;28.03;;;;;;;12.65;100.00;102452.53;5003790;29;20374;-70
2022/10/18 06:24:36;;;;;;;104.80;30.13;;;;;;;12.65;100.00;102461.22;5004820;29;20039;-70
2022/10/18 06:27:08;;;;;;;114.00;32.90;;;;;;;12.65;100.00;102465.59;5005049;29;20475;-70
2022/10/18 06:29:40;;;;;;;104.20;30.37;;;;;;;12.64;100.00;102464.75;5004935;29;20475;-70
2022/10/18 06:32:11;;;;;;;58.28;26.95;;;;;;;12.69;100.00;102462.16;5004683;29;20031;-70
2022/10/18 06:34:42;;;;;;;60.40;28.00;;;;;;;12.71;100.00;102478.72;5004507;29;20042;-70
2022/10/18 06:37:14;;;;;;;46.43;26.93;;;;;;;12.71;100.00;102468.25;5004669;29;20039;-70
2022/10/18 06:39:45;;;;;;;77.43;28.97;;;;;;;12.73;100.00;102483.09;5004166;29;20074;-70
2022/10/18 06:42:16;;;;;;;76.77;29.40;;;;;;;12.75;100.00;102480.47;5004860;29;20051;-70
2022/10/18 06:44:48;;;;;;;94.37;30.23;;;;;;;12.74;100.00;102474.38;5005005;29;20055;-69
2022/10/18 06:47:20;;;;;;;57.47;26.08;;;;;;;12.80;100.00;102476.16;5004534;29;20057;-70
2022/10/18 06:49:51;;;;;;;79.80;29.47;;;;;;;12.82;100.00;102476.19;5004605;29;20041;-69
2022/10/18 06:52:24;;;;;;;137.00;35.23;;;;;;;12.77;100.00;102476.16;5003224;29;20099;-70
2022/10/18 06:54:55;;;;;;;106.70;35.00;;;;;;;12.81;100.00;102488.38;5004776;29;20031;-70
2022/10/18 06:57:27;;;;;;;99.00;32.13;;;;;;;12.82;100.00;102497.09;5004188;29;20035;-70
2022/10/18 06:59:58;;;;;;;81.93;29.30;;;;;;;12.86;100.00;102510.19;5004118;29;20399;-70
2022/10/18 07:02:29;;;;;;;99.97;34.50;;;;;;;12.82;100.00;102505.81;5004539;29;20500;-70
2022/10/18 07:05:01;;;;;;;106.27;34.23;;;;;;;12.75;100.00;102507.53;5004761;29;20117;-70
2022/10/18 07:07:32;;;;;;;71.13;29.00;;;;;;;12.75;100.00;102502.31;5005357;29;20088;-70
2022/10/18 07:10:05;;;;;;;107.77;37.67;;;;;;;12.69;100.00;102506.63;5007830;29;20471;-70
2022/10/18 07:12:36;;;;;;;50.30;29.23;;;;;;;12.71;100.00;102520.59;5006466;29;20026;-70
2022/10/18 07:15:08;;;;;;;63.50;31.80;;;;;;;12.69;100.00;102523.19;5007772;29;20086;-70
2022/10/18 07:17:40;;;;;;;86.47;33.83;;;;;;;12.68;100.00;102521.44;5007665;29;20039;-70
2022/10/18 07:20:11;;;;;;;106.22;37.65;;;;;;;12.80;100.00;102522.38;5007567;29;20037;-70
2022/10/18 07:22:43;;;;;;;81.67;35.23;;;;;;;12.90;100.00;102516.34;5007578;29;20050;-70
2022/10/18 07:25:14;;;;;;;55.67;31.30;;;;;;;13.00;100.00;102515.50;5007520;29;20480;-70
2022/10/18 07:27:45;;;;;;;60.63;33.47;;;;;;;13.11;100.00;102528.66;5008033;29;20091;-69
2022/10/18 07:30:17;;;;;;;55.00;33.30;;;;;;;13.26;100.00;102543.56;5008004;29;20043;-70
2022/10/18 07:32:51;;;;;;;45.40;33.00;;;;;;;13.40;100.00;102547.13;5007374;29;20484;-69
2022/10/18 07:35:22;;;;;;;52.70;33.95;;;;;;;13.43;100.00;102552.38;5006059;29;20119;-70
2022/10/18 07:37:54;;;;;;;57.93;34.60;;;;;;;13.54;100.00;102546.28;5007436;29;20129;-70
2022/10/18 07:40:25;;;;;;;59.03;31.67;;;;;;;13.61;100.00;102555.94;5007765;29;20074;-75
2022/10/18 07:42:57;;;;;;;53.53;32.50;;;;;;;13.72;100.00;102569.94;5007143;29;20527;-70
2022/10/18 07:45:28;;;;;;;59.70;30.80;;;;;;;13.69;100.00;102564.69;5007008;29;20065;-70
2022/10/18 07:47:59;;;;;;;50.70;29.17;;;;;;;13.77;100.00;102572.59;5007131;29;20050;-70
2022/10/18 07:50:31;;;;;;;50.63;27.57;;;;;;;13.76;100.00;102583.94;5006936;29;20069;-70
2022/10/18 07:53:02;;;;;;;50.07;28.87;;;;;;;13.76;100.00;102587.41;5007261;29;20103;-69
2022/10/18 07:55:33;;;;;;;42.70;26.63;;;;;;;13.91;100.00;102590.94;5007348;29;20509;-70
2022/10/18 07:58:05;;;;;;;42.63;26.27;;;;;;;13.97;100.00;102596.22;5007320;29;20042;-70
2022/10/18 08:00:37;;;;;;;33.20;24.97;;;;;;;13.97;100.00;102602.31;5007647;29;20035;-70
2022/10/18 08:03:08;;;;;;;31.23;22.85;;;;;;;14.18;100.00;102595.38;5006836;29;20070;-70
2022/10/18 08:05:39;;;;;;;34.73;22.47;;;;;;;14.21;100.00;102604.09;5006321;29;20031;-70
2022/10/18 08:08:11;;;;;;;42.10;23.00;;;;;;;14.44;100.00;102608.53;5006734;29;20401;-70
2022/10/18 08:10:42;;;;;;;27.83;21.33;;;;;;;14.44;100.00;102613.78;5006971;29;20129;-70
2022/10/18 08:13:13;;;;;;;30.73;21.67;;;;;;;14.61;100.00;102618.19;5006672;29;20375;-70
2022/10/18 08:15:45;;;;;;;26.90;19.93;;;;;;;14.52;100.00;102622.53;5005553;29;20038;-70
2022/10/18 08:18:16;;;;;;;40.90;33.57;;;;;;;14.71;100.00;102617.28;5006642;29;20050;-69
2022/10/18 08:20:48;;;;;;;27.47;19.63;;;;;;;14.57;100.00;102620.75;5005067;29;20034;-70
2022/10/18 08:23:19;;;;;;;25.13;18.13;;;;;;;14.77;100.00;102618.16;5006555;29;20117;-70
2022/10/18 08:25:50;;;;;;;22.73;17.73;;;;;;;14.70;100.00;102620.78;5006485;29;20046;-70
2022/10/18 08:28:22;;;;;;;29.80;19.27;;;;;;;14.73;100.00;102615.53;5006462;29;20046;-70
2022/10/18 08:30:53;;;;;;;27.20;19.43;;;;;;;14.73;100.00;102628.66;5006456;29;20074;-70
2022/10/18 08:33:24;;;;;;;22.10;18.07;;;;;;;14.62;100.00;102638.28;5006159;29;20050;-70
2022/10/18 08:35:57;;;;;;;26.00;18.40;;;;;;;14.66;100.00;102643.53;5005976;29;20050;-70
2022/10/18 08:38:32;;;;;;;29.77;17.80;;;;;;;14.63;100.00;102650.53;5004992;29;20104;-70
2022/10/18 08:41:38;;;;;;;26.30;18.05;;;;;;;14.76;100.00;102640.03;5004672;29;20559;-69
2022/10/18 08:44:31;;;;;;;26.85;18.67;;;;;;;15.09;100.00;102633.00;5006518;29;20043;-69
2022/10/18 08:47:04;;;;;;;;;;;;;;;15.41;100.00;102641.69;5006503;29;20074;-70
2022/10/18 08:49:42;;;;;;;;;;;;;;;15.53;100.00;102643.38;5006918;29;19913;-70
2022/10/18 08:52:25;;;;;;;25.98;18.02;;;;;;;15.42;100.00;102643.41;5006230;29;20015;-70
2022/10/18 08:55:43;;;;;;;25.20;17.05;;;;;;;15.72;100.00;102652.06;5006017;29;20437;-70
2022/10/18 08:58:25;;;;;;;19.50;15.50;;;;;;;15.89;100.00;102644.13;5000923;29;20399;-71
2022/10/18 09:01:41;;;;;;;27.10;19.77;;;;;;;16.32;100.00;102660.50;5006342;29;20034;-70
2022/10/18 09:04:32;;;;;;;23.25;14.40;;;;;;;16.22;100.00;102662.31;5005694;29;20107;-71
2022/10/18 09:07:21;;;;;;;22.23;14.70;;;;;;;16.08;100.00;102655.41;5004956;29;20123;-70
2022/10/18 09:10:22;;;;;;;19.58;14.25;;;;;;;16.12;100.00;102657.16;5006408;29;20563;-71
2022/10/18 09:13:49;;;;;;;21.30;15.95;;;;;;;16.22;100.00;102661.47;5004193;29;20051;-70
2022/10/18 09:16:29;;;;;;;18.27;13.63;;;;;;;16.10;100.00;102666.78;4989507;29;20129;-72
2022/10/18 09:19:15;;;;;;;20.23;13.57;;;;;;;16.39;100.00;102667.50;5005972;29;20035;-71
2022/10/18 09:22:13;;;;;;;20.20;15.30;;;;;;;16.75;100.00;102657.53;5006316;29;20070;-72
2022/10/18 09:24:47;;;;;;;23.17;15.48;;;;;;;16.89;99.55;102656.59;5006170;29;20464;-72
2022/10/18 09:27:32;;;;;;;23.45;13.45;;;;;;;17.01;97.76;102656.47;5005351;29;20125;-72
2022/10/18 09:30:32;;;;;;;20.83;12.50;;;;;;;17.18;94.61;102652.78;5006375;29;20045;-72
2022/10/18 09:33:33;;;;;;;19.75;12.43;;;;;;;17.03;94.01;102656.44;5005686;29;20552;-71
2022/10/18 09:36:09;;;;;;;17.05;11.60;;;;;;;17.10;90.14;102645.84;5005797;29;20084;-72
2022/10/18 09:38:58;;;;;;;19.92;11.48;;;;;;;17.57;91.38;102651.47;5005586;29;20041;-72
2022/10/18 09:41:38;;;;;;;19.25;10.63;;;;;;;17.99;89.93;102664.16;5005348;29;20059;-72
2022/10/18 09:44:12;;;;;;;22.52;9.93;;;;;;;18.54;86.94;102660.66;5005639;29;20365;-72
2022/10/18 09:47:16;;;;;;;19.85;11.10;;;;;;;18.80;87.37;102667.28;5004595;29;20069;-72
2022/10/18 09:49:51;;;;;;;18.10;9.82;;;;;;;19.28;84.93;102662.00;5001027;29;20053;-72
2022/10/18 09:52:44;;;;;;;15.77;8.85;;;;;;;19.72;84.71;102672.59;5005448;29;20045;-72
2022/10/18 09:55:22;;;;;;;18.15;8.82;;;;;;;20.18;78.29;102670.75;5005989;29;20031;-71
2022/10/18 09:57:59;;;;;;;17.20;9.13;;;;;;;20.09;77.87;102671.81;5004197;29;20166;-71
2022/10/18 10:00:33;;;;;;;18.08;8.35;;;;;;;20.75;75.60;102666.72;5005097;29;20035;-71
2022/10/18 10:03:13;;;;;;;21.33;9.15;;;;;;;20.89;74.45;102667.25;5005975;29;20043;-71
2022/10/18 10:05:45;;;;;;;17.73;9.50;;;;;;;20.90;74.19;102654.88;5005375;29;20038;-71
2022/10/18 10:08:16;;;;;;;14.63;8.60;;;;;;;21.08;72.73;102653.53;5005076;29;20043;-71
2022/10/18 10:10:48;;;;;;;14.23;8.80;;;;;;;21.46;69.98;102660.41;5005173;29;20045;-72
2022/10/18 10:13:25;;;;;;;21.93;8.20;;;;;;;21.71;70.43;102658.84;5005127;29;20288;-71
2022/10/18 10:16:00;;;;;;;13.85;8.20;;;;;;;21.72;69.65;102660.56;5005907;29;20038;-71
2022/10/18 10:18:39;;;;;;;17.38;8.25;;;;;;;21.76;67.06;102656.91;5005533;29;20049;-71
2022/10/18 10:21:15;;;;;;;14.15;7.88;;;;;;;21.44;66.80;102656.91;5003855;29;20042;-70
2022/10/18 10:23:58;;;;;;;16.15;8.10;;;;;;;21.38;66.37;102650.91;5005246;29;20039;-71
2022/10/18 10:26:33;;;;;;;13.27;7.07;;;;;;;22.37;64.49;102660.31;5005752;29;20034;-71
2022/10/18 10:29:39;;;;;;;13.50;6.90;;;;;;;22.71;64.20;102660.97;5005223;29;20042;-71
2022/10/18 10:32:16;;;;;;;16.00;7.35;;;;;;;21.78;61.57;102661.28;5004921;29;20039;-72
2022/10/18 10:34:48;;;;;;;16.63;7.85;;;;;;;21.66;62.18;102669.59;5005190;29;20038;-71
2022/10/18 10:37:24;;;;;;;13.70;6.57;;;;;;;22.42;62.16;102680.56;5005074;29;20110;-71
2022/10/18 10:40:15;;;;;;;19.85;6.50;;;;;;;22.77;64.01;102680.25;5004993;29;20121;-71
2022/10/18 10:42:55;;;;;;;15.80;7.05;;;;;;;23.19;60.49;102675.31;5006341;29;20087;-71
2022/10/18 10:45:32;;;;;;;15.25;6.68;;;;;;;24.53;58.43;102688.78;5008714;29;20062;-71
2022/10/18 10:48:08;;;;;;;18.20;6.18;;;;;;;24.65;55.85;102687.44;5008957;29;20121;-72
2022/10/18 10:50:50;;;;;;;12.63;6.30;;;;;;;24.78;55.42;102687.78;5008690;29;20027;-71
2022/10/18 10:53:27;;;;;;;;;;;;;;;25.87;58.34;102687.38;5009183;29;20039;-71
2022/10/18 10:55:59;;;;;;;14.07;5.40;;;;;;;25.10;50.05;102676.59;5008820;29;19913;-72
2022/10/18 10:58:38;;;;;;;14.32;5.70;;;;;;;25.20;51.38;102678.88;5008924;29;20384;-71
2022/10/18 11:01:25;;;;;;;12.32;5.55;;;;;;;25.64;50.96;102689.34;5009059;29;20063;-71
2022/10/18 11:04:21;;;;;;;12.93;5.43;;;;;;;25.97;50.12;102692.25;5009470;29;20035;-71
2022/10/18 11:07:12;;;;;;;13.32;5.00;;;;;;;26.36;48.67;102693.06;5009197;29;20031;-72
2022/10/18 11:09:49;;;;;;;14.02;5.03;;;;;;;25.83;45.25;102692.00;5012288;29;20367;-71
2022/10/18 11:12:39;;;;;;;11.57;4.80;;;;;;;26.32;43.09;102692.34;5013117;29;20060;-71
2022/10/18 11:15:17;;;;;;;14.05;5.40;;;;;;;26.65;46.48;102693.44;5015746;29;20475;-72
2022/10/18 11:18:18;;;;;;;11.05;4.30;;;;;;;28.00;46.28;102690.75;5010741;29;20471;-72
2022/10/18 11:21:06;;;;;;;11.87;4.53;;;;;;;28.10;44.15;102696.44;5008332;29;20486;-72
2022/10/18 11:23:41;;;;;;;11.60;4.38;;;;;;;28.40;40.01;102692.91;5008190;29;20080;-73
2022/10/18 11:26:12;;;;;;;13.38;4.53;;;;;;;28.64;38.62;102694.22;5006975;29;20039;-72
2022/10/18 11:29:05;;;;;;;11.95;4.40;;;;;;;28.42;38.35;102682.94;5008314;29;20383;-72
2022/10/18 11:31:42;;;;;;;11.73;4.97;;;;;;;27.25;38.96;102687.63;5007973;29;20035;-72
2022/10/18 11:34:35;;;;;;;12.55;4.72;;;;;;;27.33;39.02;102684.59;4992201;29;20471;-71
2022/10/18 11:37:25;;;;;;;8.80;3.38;;;;;;;27.60;39.17;102677.72;5008586;29;20417;-72
2022/10/18 11:40:26;;;;;;;11.38;3.60;;;;;;;28.46;39.14;102679.16;5007476;29;20041;-72
2022/10/18 11:43:22;;;;;;;9.67;3.70;;;;;;;27.68;36.10;102679.09;5008385;29;20039;-72
2022/10/18 11:46:02;;;;;;;9.57;3.28;;;;;;;28.18;36.36;102672.72;5008063;29;20034;-72
2022/10/18 11:49:06;;;;;;;13.63;3.88;;;;;;;28.80;35.31;102674.47;5006438;29;20138;-72